createdAt,value
2016-09-02T00:00:17.559Z,17.39
2016-09-02T00:01:18.063Z,17.40
2016-09-02T00:02:22.362Z,17.41
2016-09-02T00:03:22.106Z,17.47
2016-09-02T00:04:21.375Z,17.48
2016-09-02T00:05:17.481Z,17.45
2016-09-02T00:06:17.728Z,17.45
2016-09-02T00:07:17.110Z,17.46
2016-09-02T00:08:13.720Z,17.43
2016-09-02T00:09:20.693Z,17.49
2016-09-02T00:10:26.424Z,17.49
2016-09-02T00:11:20.028Z,17.46
2016-09-02T00:12:14.555Z,17.45
2016-09-02T00:13:12.066Z,17.49
2016-09-02T00:14:21.501Z,17.55
2016-09-02T00:15:17.146Z,17.55
2016-09-02T00:16:20.892Z,17.54
2016-09-02T00:17:21.766Z,17.58
2016-09-02T00:18:12.890Z,17.57
2016-09-02T00:19:23.688Z,17.57
2016-09-02T00:20:16.915Z,17.54
2016-09-02T00:21:12.379Z,17.48
2016-09-02T00:22:21.475Z,17.46
2016-09-02T00:24:13.309Z,17.41
2016-09-02T00:25:21.323Z,17.43
2016-09-02T00:26:21.432Z,17.45
2016-09-02T00:27:17.822Z,17.41
2016-09-02T00:28:21.037Z,17.41
2016-09-02T00:29:21.245Z,17.36
2016-09-02T00:30:20.789Z,17.36
2016-09-02T00:31:22.032Z,17.35
2016-09-02T00:32:19.764Z,17.38
2016-09-02T00:33:18.546Z,17.40
2016-09-02T00:34:19.058Z,17.38
2016-09-02T00:35:14.191Z,17.32
2016-09-02T00:36:17.528Z,17.27
2016-09-02T00:37:20.608Z,17.29
2016-09-02T00:38:20.809Z,17.32
2016-09-02T00:39:20.597Z,17.32
2016-09-02T00:40:18.776Z,17.26
2016-09-02T00:41:15.716Z,17.24
2016-09-02T00:42:20.820Z,17.29
2016-09-02T00:43:12.971Z,17.31
2016-09-02T00:44:22.174Z,17.32
2016-09-02T00:45:22.013Z,17.29
2016-09-02T00:46:21.558Z,17.24
2016-09-02T00:47:21.831Z,17.19
2016-09-02T00:48:26.854Z,17.24
2016-09-02T00:49:19.090Z,17.25
2016-09-02T00:50:22.808Z,17.23
2016-09-02T00:51:14.188Z,17.25
2016-09-02T00:52:21.608Z,17.19
2016-09-02T00:53:17.450Z,17.23
2016-09-02T00:54:12.550Z,17.24
2016-09-02T00:55:20.625Z,17.17
2016-09-02T00:56:27.605Z,17.15
2016-09-02T00:57:20.669Z,17.15
2016-09-02T00:58:14.763Z,17.12
2016-09-02T00:59:23.029Z,17.13
2016-09-02T01:00:17.738Z,17.10
2016-09-02T01:01:13.597Z,17.15
2016-09-02T01:02:14.195Z,17.17
2016-09-02T01:03:18.565Z,17.12
2016-09-02T01:04:16.848Z,17.15
2016-09-02T01:05:22.506Z,17.12
2016-09-02T01:06:15.162Z,17.13
2016-09-02T01:07:22.002Z,17.07
2016-09-02T01:08:16.585Z,17.11
2016-09-02T01:09:17.243Z,17.12
2016-09-02T01:10:19.204Z,17.17
2016-09-02T01:11:18.710Z,17.16
2016-09-02T01:12:18.295Z,17.24
2016-09-02T01:13:13.178Z,17.22
2016-09-02T01:14:26.696Z,17.21
2016-09-02T01:15:22.425Z,17.21
2016-09-02T01:16:18.664Z,17.18
2016-09-02T01:17:20.854Z,17.13
2016-09-02T01:18:18.544Z,17.11
2016-09-02T01:19:16.694Z,17.12
2016-09-02T01:20:20.695Z,17.11
2016-09-02T01:21:26.682Z,17.18
2016-09-02T01:22:20.817Z,17.22
2016-09-02T01:23:21.672Z,17.22
2016-09-02T01:24:21.687Z,17.24
2016-09-02T01:25:14.071Z,17.23
2016-09-02T01:26:15.535Z,17.24
2016-09-02T01:27:21.601Z,17.24
2016-09-02T01:28:21.345Z,17.19
2016-09-02T01:29:23.401Z,17.12
2016-09-02T01:30:21.562Z,17.18
2016-09-02T01:31:21.201Z,17.16
2016-09-02T01:32:14.637Z,17.17
2016-09-02T01:33:21.129Z,17.16
2016-09-02T01:34:26.375Z,17.09
2016-09-02T01:35:13.906Z,17.13
2016-09-02T01:36:12.798Z,17.17
2016-09-02T01:37:20.922Z,17.20
2016-09-02T01:38:21.570Z,17.13
2016-09-02T01:39:14.121Z,17.07
2016-09-02T01:40:22.158Z,17.12
2016-09-02T01:41:27.037Z,17.05
2016-09-02T01:42:12.998Z,17.01
2016-09-02T01:43:22.890Z,16.97
2016-09-02T01:44:14.590Z,16.93
2016-09-02T01:45:15.776Z,16.94
2016-09-02T01:46:19.674Z,16.92
2016-09-02T01:47:19.543Z,16.93
2016-09-02T01:48:27.141Z,16.94
2016-09-02T01:49:21.362Z,16.91
2016-09-02T01:50:17.604Z,16.93
2016-09-02T01:51:17.135Z,16.91
2016-09-02T01:52:17.990Z,16.93
2016-09-02T01:53:28.149Z,16.94
2016-09-02T01:54:21.162Z,16.88
2016-09-02T01:55:13.909Z,16.82
2016-09-02T01:56:16.756Z,16.88
2016-09-02T01:57:11.548Z,16.83
2016-09-02T01:58:17.654Z,16.88
2016-09-02T01:59:22.914Z,16.78
2016-09-02T02:00:11.315Z,16.72
2016-09-02T02:01:22.157Z,16.76
2016-09-02T02:02:22.365Z,16.76
2016-09-02T02:04:17.342Z,16.77
2016-09-02T02:05:22.770Z,16.71
2016-09-02T02:06:12.955Z,16.65
2016-09-02T02:07:12.406Z,16.69
2016-09-02T02:08:20.465Z,16.65
2016-09-02T02:09:19.895Z,16.64
2016-09-02T02:10:15.559Z,16.64
2016-09-02T02:11:20.569Z,16.64
2016-09-02T02:12:20.670Z,16.67
2016-09-02T02:13:20.362Z,16.62
2016-09-02T02:14:17.576Z,16.65
2016-09-02T02:15:22.359Z,16.59
2016-09-02T02:16:22.948Z,16.62
2016-09-02T02:17:22.061Z,16.60
2016-09-02T02:18:23.137Z,16.62
2016-09-02T02:19:17.518Z,16.62
2016-09-02T02:20:13.909Z,16.62
2016-09-02T02:21:17.674Z,16.63
2016-09-02T02:22:16.803Z,16.62
2016-09-02T02:23:17.764Z,16.65
2016-09-02T02:24:12.231Z,16.63
2016-09-02T02:25:12.702Z,16.66
2016-09-02T02:26:20.833Z,16.65
2016-09-02T02:27:22.953Z,16.59
2016-09-02T02:28:19.575Z,16.64
2016-09-02T02:29:16.845Z,16.66
2016-09-02T02:30:27.680Z,16.66
2016-09-02T02:31:14.181Z,16.71
2016-09-02T02:32:26.857Z,16.72
2016-09-02T02:33:18.716Z,16.70
2016-09-02T02:34:16.670Z,16.68
2016-09-02T02:35:16.833Z,16.64
2016-09-02T02:36:20.165Z,16.69
2016-09-02T02:37:20.682Z,16.72
2016-09-02T02:38:18.578Z,16.69
2016-09-02T02:39:17.294Z,16.62
2016-09-02T02:40:16.812Z,16.65
2016-09-02T02:41:20.982Z,16.59
2016-09-02T02:42:16.893Z,16.53
2016-09-02T02:43:14.202Z,16.59
2016-09-02T02:44:20.244Z,16.61
2016-09-02T02:45:22.077Z,16.60
2016-09-02T02:46:17.256Z,16.60
2016-09-02T02:47:21.424Z,16.60
2016-09-02T02:48:21.176Z,16.56
2016-09-02T02:49:18.318Z,16.52
2016-09-02T02:50:13.670Z,16.57
2016-09-02T02:51:28.709Z,16.56
2016-09-02T02:52:22.694Z,16.56
2016-09-02T02:53:21.540Z,16.54
2016-09-02T02:54:14.939Z,16.48
2016-09-02T02:55:22.924Z,16.53
2016-09-02T02:56:16.211Z,16.48
2016-09-02T02:57:17.045Z,16.50
2016-09-02T02:58:21.334Z,16.51
2016-09-02T02:59:26.964Z,16.49
2016-09-02T03:00:16.924Z,16.52
2016-09-02T03:01:17.156Z,16.55
2016-09-02T03:02:16.765Z,16.57
2016-09-02T03:03:21.677Z,16.53
2016-09-02T03:04:15.124Z,16.48
2016-09-02T03:05:14.586Z,16.46
2016-09-02T03:06:20.338Z,16.51
2016-09-02T03:07:19.433Z,16.51
2016-09-02T03:08:18.098Z,16.48
2016-09-02T03:09:22.816Z,16.54
2016-09-02T03:10:20.050Z,16.56
2016-09-02T03:11:21.603Z,16.46
2016-09-02T03:12:22.228Z,16.44
2016-09-02T03:13:29.086Z,16.49
2016-09-02T03:14:12.618Z,16.46
2016-09-02T03:15:13.133Z,16.42
2016-09-02T03:16:15.999Z,16.40
2016-09-02T03:17:17.273Z,16.43
2016-09-02T03:18:13.966Z,16.43
2016-09-02T03:19:18.001Z,16.37
2016-09-02T03:20:22.689Z,16.39
2016-09-02T03:21:18.765Z,16.38
2016-09-02T03:22:17.522Z,16.42
2016-09-02T03:23:16.618Z,16.38
2016-09-02T03:24:13.870Z,16.42
2016-09-02T03:25:19.472Z,16.41
2016-09-02T03:26:20.627Z,16.43
2016-09-02T03:28:19.255Z,16.41
2016-09-02T03:29:17.177Z,16.38
2016-09-02T03:30:22.690Z,16.41
2016-09-02T03:31:16.738Z,16.38
2016-09-02T03:32:25.757Z,16.35
2016-09-02T03:33:21.237Z,16.37
2016-09-02T03:34:26.813Z,16.39
2016-09-02T03:35:15.944Z,16.38
2016-09-02T03:36:23.344Z,16.33
2016-09-02T03:37:16.062Z,16.35
2016-09-02T03:38:15.470Z,16.36
2016-09-02T03:39:26.261Z,16.33
2016-09-02T03:40:14.151Z,16.36
2016-09-02T03:41:19.123Z,16.35
2016-09-02T03:42:21.282Z,16.35
2016-09-02T03:43:15.150Z,16.29
2016-09-02T03:44:23.364Z,16.27
2016-09-02T03:45:22.500Z,16.29
2016-09-02T03:46:14.218Z,16.30
2016-09-02T03:47:22.469Z,16.32
2016-09-02T03:48:20.841Z,16.26
2016-09-02T03:49:16.850Z,16.19
2016-09-02T03:50:11.531Z,16.24
2016-09-02T03:51:20.884Z,16.23
2016-09-02T03:52:16.039Z,16.19
2016-09-02T03:53:22.169Z,16.21
2016-09-02T03:54:25.890Z,16.19
2016-09-02T03:55:17.340Z,16.18
2016-09-02T03:56:14.082Z,16.18
2016-09-02T03:57:13.489Z,16.19
2016-09-02T03:58:20.517Z,16.24
2016-09-02T03:59:16.530Z,16.22
2016-09-02T04:00:21.467Z,16.24
2016-09-02T04:01:27.692Z,16.21
2016-09-02T04:02:12.066Z,16.21
2016-09-02T04:03:20.557Z,16.22
2016-09-02T04:04:17.084Z,16.20
2016-09-02T04:05:20.724Z,16.19
2016-09-02T04:06:12.872Z,16.20
2016-09-02T04:07:12.314Z,16.17
2016-09-02T04:08:17.308Z,16.17
2016-09-02T04:09:15.314Z,16.21
2016-09-02T04:10:12.523Z,16.20
2016-09-02T04:11:15.031Z,16.27
2016-09-02T04:12:19.191Z,16.22
2016-09-02T04:13:23.683Z,16.28
2016-09-02T04:14:22.879Z,16.29
2016-09-02T04:15:11.497Z,16.28
2016-09-02T04:16:22.792Z,16.27
2016-09-02T04:17:26.351Z,16.31
2016-09-02T04:18:12.732Z,16.31
2016-09-02T04:19:12.902Z,16.27
2016-09-02T04:20:14.083Z,16.30
2016-09-02T04:21:16.180Z,16.26
2016-09-02T04:22:22.996Z,16.27
2016-09-02T04:23:26.154Z,16.28
2016-09-02T04:24:19.817Z,16.26
2016-09-02T04:25:23.743Z,16.22
2016-09-02T04:26:20.253Z,16.24
2016-09-02T04:27:12.448Z,16.30
2016-09-02T04:28:13.017Z,16.30
2016-09-02T04:29:23.355Z,16.31
2016-09-02T04:30:12.350Z,16.37
2016-09-02T04:31:16.328Z,16.38
2016-09-02T04:32:16.052Z,16.38
2016-09-02T04:33:21.178Z,16.42
2016-09-02T04:34:17.599Z,16.44
2016-09-02T04:35:21.380Z,16.50
2016-09-02T04:36:20.963Z,16.51
2016-09-02T04:37:21.578Z,16.54
2016-09-02T04:38:20.285Z,16.57
2016-09-02T04:39:19.999Z,16.54
2016-09-02T04:40:21.712Z,16.57
2016-09-02T04:41:12.815Z,16.60
2016-09-02T04:42:12.462Z,16.61
2016-09-02T04:43:20.920Z,16.61
2016-09-02T04:44:16.502Z,16.53
2016-09-02T04:45:23.462Z,16.51
2016-09-02T04:46:18.706Z,16.48
2016-09-02T04:47:17.949Z,16.49
2016-09-02T04:48:22.011Z,16.52
2016-09-02T04:49:18.028Z,16.54
2016-09-02T04:50:11.631Z,16.58
2016-09-02T04:51:20.970Z,16.57
2016-09-02T04:52:18.933Z,16.57
2016-09-02T04:53:21.973Z,16.61
2016-09-02T04:54:13.595Z,16.60
2016-09-02T04:55:15.173Z,16.56
2016-09-02T04:56:18.286Z,16.49
2016-09-02T04:59:20.997Z,16.52
2016-09-02T05:00:16.716Z,16.53
2016-09-02T05:01:17.279Z,16.57
2016-09-02T05:02:21.580Z,16.57
2016-09-02T05:03:20.736Z,16.57
2016-09-02T05:04:13.947Z,16.57
2016-09-02T05:05:26.303Z,16.59
2016-09-02T05:06:28.185Z,16.59
2016-09-02T05:07:15.523Z,16.61
2016-09-02T05:08:25.590Z,16.62
2016-09-02T05:09:13.195Z,16.60
2016-09-02T05:10:17.213Z,16.64
2016-09-02T05:11:17.598Z,16.58
2016-09-02T05:12:26.098Z,16.60
2016-09-02T05:13:12.687Z,16.57
2016-09-02T05:15:21.330Z,16.58
2016-09-02T05:16:15.877Z,16.58
2016-09-02T05:18:12.603Z,16.59
2016-09-02T05:22:21.580Z,16.60
2016-09-02T05:23:15.553Z,16.61
2016-09-02T05:24:12.918Z,16.60
2016-09-02T05:25:21.836Z,16.60
2016-09-02T05:26:11.999Z,16.60
2016-09-02T05:27:22.763Z,16.59
2016-09-02T05:28:12.887Z,16.60
2016-09-02T05:29:14.551Z,16.59
2016-09-02T05:30:10.831Z,16.62
2016-09-02T05:31:12.359Z,16.62
2016-09-02T05:32:17.409Z,16.62
2016-09-02T05:33:26.204Z,16.64
2016-09-02T05:34:17.236Z,16.61
2016-09-02T05:35:21.130Z,16.61
2016-09-02T05:36:20.747Z,16.58
2016-09-02T05:37:13.828Z,16.62
2016-09-02T05:38:21.504Z,16.66
2016-09-02T05:39:12.932Z,16.68
2016-09-02T05:40:13.435Z,16.69
2016-09-02T05:41:13.806Z,16.69
2016-09-02T05:42:21.767Z,16.72
2016-09-02T05:43:12.825Z,16.74
2016-09-02T05:44:28.351Z,16.74
2016-09-02T05:45:22.474Z,16.73
2016-09-02T05:46:21.402Z,16.75
2016-09-02T05:47:13.330Z,16.77
2016-09-02T05:48:19.493Z,16.80
2016-09-02T05:49:14.884Z,16.82
2016-09-02T05:50:12.695Z,16.82
2016-09-02T05:51:22.815Z,16.83
2016-09-02T05:52:14.751Z,16.81
2016-09-02T05:53:11.300Z,16.84
2016-09-02T05:54:22.006Z,16.86
2016-09-02T05:55:12.774Z,16.89
2016-09-02T05:56:17.529Z,16.88
2016-09-02T05:57:21.730Z,16.93
2016-09-02T05:58:12.068Z,16.94
2016-09-02T05:59:12.362Z,16.94
2016-09-02T06:00:12.258Z,16.95
2016-09-02T06:01:11.850Z,16.93
2016-09-02T06:02:23.147Z,16.94
2016-09-02T06:03:18.706Z,16.99
2016-09-02T06:04:13.294Z,17.02
2016-09-02T06:05:14.662Z,17.04
2016-09-02T06:06:12.628Z,17.06
2016-09-02T06:07:12.248Z,17.11
2016-09-02T06:08:22.894Z,17.13
2016-09-02T06:09:12.215Z,17.13
2016-09-02T06:10:12.319Z,17.16
2016-09-02T06:11:10.955Z,17.19
2016-09-02T06:12:09.139Z,17.22
2016-09-02T06:13:11.954Z,17.25
2016-09-02T06:14:20.668Z,17.28
2016-09-02T06:15:11.721Z,17.23
2016-09-02T06:16:11.842Z,17.23
2016-09-02T06:17:13.110Z,17.20
2016-09-02T06:19:21.897Z,17.23
2016-09-02T06:20:20.832Z,17.30
2016-09-02T06:21:12.329Z,17.30
2016-09-02T06:22:11.881Z,17.30
2016-09-02T06:23:11.967Z,17.33
2016-09-02T06:24:12.007Z,17.37
2016-09-02T06:25:12.396Z,17.39
2016-09-02T06:26:13.416Z,17.42
2016-09-02T06:27:14.758Z,17.41
2016-09-02T06:28:13.155Z,17.45
2016-09-02T06:30:21.880Z,17.49
2016-09-02T06:31:22.376Z,17.53
2016-09-02T06:32:12.047Z,17.57
2016-09-02T06:33:23.527Z,17.57
2016-09-02T06:34:13.395Z,17.59
2016-09-02T06:35:12.590Z,17.58
2016-09-02T06:36:23.315Z,17.62
2016-09-02T06:37:11.699Z,17.67
2016-09-02T06:38:11.947Z,17.68
2016-09-02T06:39:13.791Z,17.72
2016-09-02T06:40:12.770Z,17.70
2016-09-02T06:41:11.821Z,17.75
2016-09-02T06:42:26.073Z,17.80
2016-09-02T06:43:12.356Z,17.81
2016-09-02T06:45:12.830Z,17.88
2016-09-02T06:46:12.450Z,17.92
2016-09-02T06:47:18.645Z,17.94
2016-09-02T06:48:17.239Z,17.93
2016-09-02T06:49:37.867Z,17.98
2016-09-02T06:50:12.020Z,18.02
2016-09-02T06:51:16.776Z,18.03
2016-09-02T06:52:18.259Z,18.05
2016-09-02T06:53:11.655Z,18.08
2016-09-02T06:54:12.468Z,18.07
2016-09-02T06:55:13.756Z,18.12
2016-09-02T06:56:12.555Z,18.18
2016-09-02T06:57:12.047Z,18.19
2016-09-02T06:58:13.121Z,18.24
2016-09-02T06:59:14.464Z,18.28
2016-09-02T07:00:15.215Z,18.32
2016-09-02T07:01:12.371Z,18.34
2016-09-02T07:02:13.896Z,18.36
2016-09-02T07:03:11.652Z,18.41
2016-09-02T07:04:18.614Z,18.45
2016-09-02T07:05:28.198Z,18.47
2016-09-02T07:06:12.285Z,18.50
2016-09-02T07:07:12.785Z,18.53
2016-09-02T07:08:17.627Z,18.56
2016-09-02T07:09:12.015Z,18.56
2016-09-02T07:10:12.389Z,18.57
2016-09-02T07:11:18.181Z,18.61
2016-09-02T07:12:12.581Z,18.68
2016-09-02T07:13:13.852Z,18.67
2016-09-02T07:14:21.188Z,18.70
2016-09-02T07:15:12.874Z,18.72
2016-09-02T07:16:13.076Z,18.74
2016-09-02T07:17:16.383Z,18.77
2016-09-02T07:18:13.172Z,18.80
2016-09-02T07:19:12.881Z,18.82
2016-09-02T07:20:18.168Z,18.87
2016-09-02T07:21:17.342Z,18.95
2016-09-02T07:22:14.498Z,18.96
2016-09-02T07:23:21.660Z,18.99
2016-09-02T07:24:18.012Z,18.99
2016-09-02T07:25:11.890Z,19.07
2016-09-02T07:26:17.596Z,19.07
2016-09-02T07:27:12.676Z,19.10
2016-09-02T07:28:20.064Z,19.23
2016-09-02T07:29:15.283Z,19.30
2016-09-02T07:30:23.015Z,19.33
2016-09-02T07:31:14.101Z,19.33
2016-09-02T07:32:16.032Z,19.28
2016-09-02T07:33:21.613Z,19.30
2016-09-02T07:34:12.163Z,19.33
2016-09-02T07:35:12.626Z,19.30
2016-09-02T07:36:14.374Z,19.33
2016-09-02T07:37:12.435Z,19.37
2016-09-02T07:38:28.561Z,19.33
2016-09-02T07:39:18.817Z,19.35
2016-09-02T07:40:26.976Z,19.41
2016-09-02T07:42:22.220Z,19.49
2016-09-02T07:43:15.514Z,19.52
2016-09-02T07:44:15.378Z,19.47
2016-09-02T07:45:21.986Z,19.49
2016-09-02T07:46:22.485Z,19.51
2016-09-02T07:47:23.123Z,19.55
2016-09-02T07:48:13.263Z,19.58
2016-09-02T07:49:22.175Z,19.61
2016-09-02T07:50:13.153Z,19.62
2016-09-02T07:51:17.881Z,19.65
2016-09-02T07:52:21.068Z,19.69
2016-09-02T07:54:16.028Z,19.71
2016-09-02T07:56:22.100Z,19.74
2016-09-02T07:57:20.387Z,19.72
2016-09-02T07:58:12.126Z,19.73
2016-09-02T07:59:11.878Z,19.78
2016-09-02T08:01:18.265Z,19.82
2016-09-02T08:02:22.077Z,19.82
2016-09-02T08:03:20.080Z,19.79
2016-09-02T08:04:22.151Z,19.76
2016-09-02T08:05:26.540Z,19.76
2016-09-02T08:06:17.781Z,19.79
2016-09-02T08:07:15.475Z,19.81
2016-09-02T08:08:17.573Z,19.84
2016-09-02T08:09:13.739Z,19.86
2016-09-02T08:10:21.848Z,19.91
2016-09-02T08:11:17.529Z,19.92
2016-09-02T08:12:20.785Z,19.93
2016-09-02T08:14:17.893Z,20.03
2016-09-02T08:15:17.987Z,20.05
2016-09-02T08:16:15.455Z,20.07
2016-09-02T08:17:20.752Z,20.04
2016-09-02T08:18:13.524Z,20.01
2016-09-02T08:19:21.378Z,20.04
2016-09-02T08:20:18.127Z,20.06
2016-09-02T08:21:22.134Z,20.13
2016-09-02T08:22:13.174Z,20.14
2016-09-02T08:23:20.294Z,20.16
2016-09-02T08:24:21.434Z,20.17
2016-09-02T08:25:18.132Z,20.16
2016-09-02T08:26:14.015Z,20.14
2016-09-02T08:27:28.500Z,20.20
2016-09-02T08:28:15.620Z,20.21
2016-09-02T08:29:17.266Z,20.19
2016-09-02T08:31:27.054Z,20.18
2016-09-02T08:32:17.980Z,20.18
2016-09-02T08:33:22.302Z,20.30
2016-09-02T08:34:29.031Z,20.32
2016-09-02T08:35:12.240Z,20.29
2016-09-02T08:36:20.987Z,20.29
2016-09-02T08:39:13.026Z,20.31
2016-09-02T08:40:23.077Z,20.30
2016-09-02T08:41:12.754Z,20.29
2016-09-02T08:42:21.657Z,20.30
2016-09-02T08:43:15.478Z,20.40
2016-09-02T08:44:12.170Z,20.46
2016-09-02T08:45:20.327Z,20.57
2016-09-02T08:46:21.393Z,20.58
2016-09-02T08:47:17.416Z,20.60
2016-09-02T08:48:12.135Z,20.64
2016-09-02T08:49:22.855Z,20.62
2016-09-02T08:50:29.950Z,20.61
2016-09-02T08:51:22.217Z,20.64
2016-09-02T08:52:11.864Z,20.69
2016-09-02T08:53:12.461Z,20.72
2016-09-02T08:54:11.652Z,20.78
2016-09-02T08:56:11.965Z,20.82
2016-09-02T08:57:12.741Z,20.75
2016-09-02T08:58:16.897Z,20.76
2016-09-02T08:59:12.309Z,20.79
2016-09-02T09:00:15.081Z,20.79
2016-09-02T09:01:22.780Z,20.79
2016-09-02T09:02:21.436Z,20.82
2016-09-02T09:03:13.130Z,20.86
2016-09-02T09:05:13.239Z,20.84
2016-09-02T09:06:16.642Z,20.86
2016-09-02T09:07:11.932Z,20.85
2016-09-02T09:08:11.894Z,20.94
2016-09-02T09:09:11.963Z,20.93
2016-09-02T09:10:23.117Z,20.87
2016-09-02T09:11:11.885Z,20.90
2016-09-02T09:12:20.759Z,21.01
2016-09-02T09:13:11.845Z,21.02
2016-09-02T09:14:11.954Z,20.95
2016-09-02T09:15:17.468Z,20.98
2016-09-02T09:16:21.052Z,20.97
2016-09-02T09:17:16.914Z,21.01
2016-09-02T09:18:12.047Z,21.06
2016-09-02T09:19:17.615Z,21.08
2016-09-02T09:20:20.753Z,21.07
2016-09-02T09:21:18.246Z,21.06
2016-09-02T09:22:13.752Z,21.10
2016-09-02T09:23:11.615Z,21.18
2016-09-02T09:24:11.881Z,21.23
2016-09-02T09:25:21.006Z,21.27
2016-09-02T09:26:14.009Z,21.35
2016-09-02T09:27:12.237Z,21.46
2016-09-02T09:28:10.184Z,21.48
2016-09-02T09:29:14.265Z,21.57
2016-09-02T09:30:16.771Z,21.61
2016-09-02T09:31:21.389Z,21.61
2016-09-02T09:32:21.621Z,21.45
2016-09-02T09:33:11.630Z,21.41
2016-09-02T09:34:13.864Z,21.38
2016-09-02T09:35:13.243Z,21.38
2016-09-02T09:36:11.924Z,21.33
2016-09-02T09:37:12.102Z,21.28
2016-09-02T09:38:11.980Z,21.24
2016-09-02T09:39:13.992Z,21.23
2016-09-02T09:40:12.138Z,21.25
2016-09-02T09:41:13.168Z,21.24
2016-09-02T09:42:28.669Z,21.24
2016-09-02T09:43:22.512Z,21.36
2016-09-02T09:44:14.159Z,21.37
2016-09-02T09:45:11.959Z,21.36
2016-09-02T09:46:12.279Z,21.39
2016-09-02T09:47:12.947Z,21.40
2016-09-02T09:48:12.217Z,21.36
2016-09-02T09:49:17.660Z,21.30
2016-09-02T09:50:14.460Z,21.31
2016-09-02T09:51:15.850Z,21.30
2016-09-02T09:52:22.570Z,21.28
2016-09-02T09:53:12.072Z,21.29
2016-09-02T09:54:18.167Z,21.31
2016-09-02T09:55:21.232Z,21.39
2016-09-02T09:56:14.723Z,21.41
2016-09-02T09:57:13.280Z,21.43
2016-09-02T09:58:13.401Z,21.41
2016-09-02T09:59:14.958Z,21.40
2016-09-02T10:00:14.175Z,21.55
2016-09-02T10:01:22.531Z,21.53
2016-09-02T10:02:14.943Z,21.54
2016-09-02T10:03:12.598Z,21.54
2016-09-02T10:04:21.754Z,21.57
2016-09-02T10:06:21.147Z,21.62
2016-09-02T10:07:21.905Z,21.83
2016-09-02T10:08:23.020Z,21.84
2016-09-02T10:09:22.372Z,21.82
2016-09-02T10:11:11.878Z,22.00
2016-09-02T10:12:18.991Z,21.95
2016-09-02T10:13:27.443Z,21.95
2016-09-02T10:14:21.506Z,21.93
2016-09-02T10:15:20.686Z,21.90
2016-09-02T10:16:11.865Z,21.95
2016-09-02T10:17:21.187Z,21.94
2016-09-02T10:18:19.729Z,21.98
2016-09-02T10:19:20.806Z,22.01
2016-09-02T10:20:26.734Z,22.06
2016-09-02T10:22:19.550Z,22.12
2016-09-02T10:23:22.260Z,22.23
2016-09-02T10:24:26.979Z,22.27
2016-09-02T10:25:21.294Z,22.25
2016-09-02T10:26:11.908Z,22.31
2016-09-02T10:27:11.785Z,22.39
2016-09-02T10:28:13.776Z,22.38
2016-09-02T10:29:12.647Z,22.39
2016-09-02T10:30:15.085Z,22.42
2016-09-02T10:31:20.924Z,22.50
2016-09-02T10:32:12.490Z,22.54
2016-09-02T10:33:19.541Z,22.50
2016-09-02T10:34:26.830Z,22.48
2016-09-02T10:35:12.186Z,22.51
2016-09-02T10:36:12.895Z,22.50
2016-09-02T10:37:17.695Z,22.53
2016-09-02T10:38:11.755Z,22.44
2016-09-02T10:39:14.515Z,22.44
2016-09-02T10:40:14.212Z,22.41
2016-09-02T10:41:20.805Z,22.42
2016-09-02T10:42:20.888Z,22.45
2016-09-02T10:43:21.675Z,22.46
2016-09-02T10:44:15.329Z,22.49
2016-09-02T10:45:13.052Z,22.45
2016-09-02T10:46:12.082Z,22.43
2016-09-02T10:47:12.593Z,22.39
2016-09-02T10:48:27.165Z,22.43
2016-09-02T10:49:11.933Z,22.37
2016-09-02T10:50:11.117Z,22.39
2016-09-02T10:51:13.250Z,22.40
2016-09-02T10:52:19.712Z,22.43
2016-09-02T10:53:22.307Z,22.43
2016-09-02T10:55:25.843Z,22.52
2016-09-02T10:56:17.855Z,22.57
2016-09-02T10:57:22.026Z,22.65
2016-09-02T10:58:13.797Z,22.68
2016-09-02T10:59:23.044Z,22.70
2016-09-02T11:00:21.199Z,22.75
2016-09-02T11:01:16.272Z,22.74
2016-09-02T11:02:13.109Z,22.76
2016-09-02T11:03:27.515Z,22.71
2016-09-02T11:04:21.193Z,22.66
2016-09-02T11:06:22.437Z,22.57
2016-09-02T11:07:20.984Z,22.54
2016-09-02T11:08:13.207Z,22.52
2016-09-02T11:09:17.587Z,22.51
2016-09-02T11:10:21.742Z,22.53
2016-09-02T11:11:18.364Z,22.55
2016-09-02T11:12:17.554Z,22.57
2016-09-02T11:13:12.822Z,22.58
2016-09-02T11:14:14.875Z,22.58
2016-09-02T11:15:13.688Z,22.55
2016-09-02T11:16:27.035Z,22.52
2016-09-02T11:17:16.550Z,22.48
2016-09-02T11:18:12.586Z,22.46
2016-09-02T11:19:12.377Z,22.42
2016-09-02T11:20:18.563Z,22.40
2016-09-02T11:21:22.539Z,22.39
2016-09-02T11:22:17.356Z,22.41
2016-09-02T11:23:21.252Z,22.50
2016-09-02T11:24:15.823Z,22.52
2016-09-02T11:25:16.058Z,22.53
2016-09-02T11:26:14.481Z,22.56
2016-09-02T11:27:15.383Z,22.56
2016-09-02T11:28:22.184Z,22.57
2016-09-02T11:29:21.229Z,22.65
2016-09-02T11:30:28.374Z,22.71
2016-09-02T11:31:21.588Z,22.76
2016-09-02T11:32:22.774Z,22.81
2016-09-02T11:33:19.571Z,22.86
2016-09-02T11:34:13.757Z,22.88
2016-09-02T11:35:12.828Z,22.97
2016-09-02T11:36:12.986Z,23.03
2016-09-02T11:37:16.153Z,23.07
2016-09-02T11:38:21.701Z,23.13
2016-09-02T11:39:17.497Z,23.21
2016-09-02T11:40:25.909Z,23.25
2016-09-02T11:41:18.867Z,23.31
2016-09-02T11:42:21.006Z,23.37
2016-09-02T11:43:12.241Z,23.39
2016-09-02T11:44:22.406Z,23.41
2016-09-02T11:45:12.300Z,23.46
2016-09-02T11:46:23.448Z,23.46
2016-09-02T11:47:22.537Z,23.42
2016-09-02T11:48:14.509Z,23.43
2016-09-02T11:49:21.003Z,23.41
2016-09-02T11:50:12.761Z,23.44
2016-09-02T11:51:12.025Z,23.48
2016-09-02T11:52:11.542Z,23.51
2016-09-02T11:53:12.011Z,23.55
2016-09-02T11:54:19.088Z,23.58
2016-09-02T11:56:18.390Z,23.65
2016-09-02T11:57:18.707Z,23.73
2016-09-02T11:58:11.973Z,23.79
2016-09-02T11:59:12.570Z,23.76
2016-09-02T12:01:21.404Z,23.74
2016-09-02T12:03:16.501Z,23.73
2016-09-02T12:04:21.706Z,23.72
2016-09-02T12:05:12.966Z,23.68
2016-09-02T12:06:12.361Z,23.52
2016-09-02T12:07:17.488Z,23.44
2016-09-02T12:08:17.246Z,23.37
2016-09-02T12:09:22.001Z,23.33
2016-09-02T12:11:12.784Z,23.36
2016-09-02T12:12:12.913Z,23.48
2016-09-02T12:13:18.600Z,23.52
2016-09-02T12:14:12.034Z,23.53
2016-09-02T12:15:19.506Z,23.59
2016-09-02T12:16:18.230Z,23.67
2016-09-02T12:17:12.302Z,23.71
2016-09-02T12:18:11.721Z,23.80
2016-09-02T12:20:13.146Z,23.89
2016-09-02T12:21:17.614Z,23.97
2016-09-02T12:22:20.701Z,24.04
2016-09-02T12:23:22.815Z,24.08
2016-09-02T12:26:23.166Z,24.16
2016-09-02T12:27:21.861Z,23.98
2016-09-02T12:28:12.563Z,24.02
2016-09-02T12:29:27.031Z,24.09
2016-09-02T12:30:27.453Z,24.11
2016-09-02T12:31:27.398Z,24.15
2016-09-02T12:33:16.496Z,24.13
2016-09-02T12:34:16.507Z,24.15
2016-09-02T12:35:13.254Z,24.17
2016-09-02T12:36:22.225Z,24.27
2016-09-02T12:37:22.226Z,24.32
2016-09-02T12:38:28.179Z,24.33
2016-09-02T12:39:21.675Z,24.31
2016-09-02T12:40:15.818Z,24.27
2016-09-02T12:41:20.620Z,24.14
2016-09-02T12:43:26.952Z,24.00
2016-09-02T12:44:25.189Z,23.95
2016-09-02T12:47:20.042Z,23.90
2016-09-02T12:48:22.614Z,24.02
2016-09-02T12:49:21.499Z,24.09
2016-09-02T12:50:21.113Z,24.22
2016-09-02T12:51:21.335Z,24.26
2016-09-02T12:52:12.626Z,24.20
2016-09-02T12:53:12.366Z,24.09
2016-09-02T12:54:12.077Z,24.03
2016-09-02T12:55:21.450Z,23.99
2016-09-02T12:56:10.586Z,24.09
2016-09-02T12:57:12.337Z,24.22
2016-09-02T12:58:13.960Z,24.23
2016-09-02T12:59:12.743Z,24.27
2016-09-02T13:00:21.847Z,24.33
2016-09-02T13:01:23.287Z,24.54
2016-09-02T13:02:17.301Z,24.63
2016-09-02T13:03:25.505Z,24.67
2016-09-02T13:04:20.747Z,24.75
2016-09-02T13:05:16.080Z,24.82
2016-09-02T13:06:13.776Z,24.91
2016-09-02T13:07:22.661Z,25.00
2016-09-02T13:08:13.032Z,24.87
2016-09-02T13:09:19.183Z,24.82
2016-09-02T13:10:15.986Z,24.73
2016-09-02T13:11:23.064Z,24.76
2016-09-02T13:12:21.139Z,24.64
2016-09-02T13:13:13.171Z,24.51
2016-09-02T13:14:18.935Z,24.44
2016-09-02T13:15:18.391Z,24.36
2016-09-02T13:16:16.353Z,24.41
2016-09-02T13:17:22.205Z,24.51
2016-09-02T13:19:21.213Z,24.75
2016-09-02T13:20:11.667Z,24.87
2016-09-02T13:21:22.937Z,24.94
2016-09-02T13:23:11.653Z,24.82
2016-09-02T13:24:25.972Z,24.75
2016-09-02T13:25:21.101Z,24.74
2016-09-02T13:26:22.436Z,24.70
2016-09-02T13:27:14.842Z,24.61
2016-09-02T13:28:27.871Z,24.50
2016-09-02T13:29:15.287Z,24.47
2016-09-02T13:30:11.801Z,24.45
2016-09-02T13:31:10.465Z,24.46
2016-09-02T13:32:14.873Z,24.46
2016-09-02T13:33:11.857Z,24.37